createdAt,value
2022-11-21T00:02:05.125Z,10.70
2022-11-21T00:07:06.899Z,10.20
2022-11-21T00:12:08.542Z,13.17
2022-11-21T00:17:10.129Z,10.10
2022-11-21T00:22:11.865Z,8.10
2022-11-21T00:27:13.401Z,8.33
2022-11-21T00:32:15.171Z,8.07
2022-11-21T00:37:16.787Z,5.57
2022-11-21T00:42:18.390Z,5.77
2022-11-21T00:47:19.997Z,7.33
2022-11-21T00:52:21.592Z,6.73
2022-11-21T00:57:23.084Z,10.50
2022-11-21T01:02:24.633Z,6.43
2022-11-21T01:07:26.169Z,10.43
2022-11-21T01:12:27.739Z,5.47
2022-11-21T01:17:32.483Z,3.03
2022-11-21T01:22:34.020Z,9.60
2022-11-21T01:27:35.633Z,9.10
2022-11-21T01:32:37.119Z,6.63
2022-11-21T01:37:38.608Z,8.47
2022-11-21T01:42:52.095Z,5.53
2022-11-21T01:47:53.921Z,9.53
2022-11-21T01:52:55.482Z,5.10
2022-11-21T01:57:57.167Z,5.03
2022-11-21T02:03:02.521Z,6.83
2022-11-21T02:08:07.799Z,6.83
2022-11-21T02:13:09.815Z,6.00
2022-11-21T02:18:11.522Z,4.77
2022-11-21T02:23:45.535Z,5.50
2022-11-21T02:28:47.198Z,6.47
2022-11-21T02:33:48.792Z,5.30
2022-11-21T02:38:50.527Z,8.43
2022-11-21T02:44:16.291Z,5.53
2022-11-21T02:49:24.339Z,7.10
2022-11-21T02:54:26.356Z,5.57
2022-11-21T02:59:28.238Z,6.27
2022-11-21T03:04:30.873Z,6.07
2022-11-21T03:09:32.431Z,5.90
2022-11-21T03:14:35.316Z,7.87
2022-11-21T03:19:36.852Z,6.10
2022-11-21T03:24:38.477Z,5.30
2022-11-21T03:29:40.150Z,5.10
2022-11-21T03:34:41.955Z,4.67
2022-11-21T03:39:43.603Z,6.73
2022-11-21T03:44:45.236Z,7.03
2022-11-21T03:49:46.971Z,3.77
2022-11-21T03:54:48.657Z,2.93
2022-11-21T03:59:50.211Z,2.97
2022-11-21T04:04:51.759Z,5.10
2022-11-21T04:09:53.389Z,7.60
2022-11-21T04:14:55.331Z,2.90
2022-11-21T04:19:56.924Z,3.30
2022-11-21T04:24:58.405Z,2.57
2022-11-21T04:29:59.972Z,6.20
2022-11-21T04:35:01.486Z,9.07
2022-11-21T04:40:03.054Z,4.67
2022-11-21T04:45:05.313Z,4.47
2022-11-21T04:50:07.845Z,4.50
2022-11-21T04:55:10.382Z,2.83
2022-11-21T05:00:14.044Z,5.53
2022-11-21T05:05:15.855Z,3.70
2022-11-21T05:10:17.494Z,5.30
2022-11-21T05:15:24.240Z,7.33
2022-11-21T05:20:26.366Z,2.57
2022-11-21T05:25:27.923Z,4.53
2022-11-21T05:30:29.570Z,8.17
2022-11-21T05:35:31.263Z,3.77
2022-11-21T05:40:33.971Z,5.47
2022-11-21T05:45:35.982Z,4.60
2022-11-21T05:50:37.480Z,2.83
2022-11-21T05:55:38.957Z,2.70
2022-11-21T06:00:41.474Z,4.53
2022-11-21T06:05:43.156Z,7.93
2022-11-21T06:10:44.854Z,5.37
2022-11-21T06:15:46.354Z,4.60
2022-11-21T06:20:48.133Z,4.77
2022-11-21T06:25:56.760Z,4.17
2022-11-21T06:31:11.675Z,5.97
2022-11-21T06:36:15.210Z,4.87
2022-11-21T06:41:19.208Z,5.77
2022-11-21T06:46:20.973Z,4.90
2022-11-21T06:51:24.266Z,4.10
2022-11-21T06:56:27.874Z,4.57
2022-11-21T07:01:29.707Z,3.80
2022-11-21T07:06:34.548Z,4.30
2022-11-21T07:11:36.500Z,3.50
2022-11-21T07:16:38.180Z,3.90
2022-11-21T07:21:39.866Z,4.43
2022-11-21T07:26:41.489Z,3.93
2022-11-21T07:31:43.096Z,4.27
2022-11-21T07:36:44.937Z,6.30
2022-11-21T07:41:46.586Z,3.60
2022-11-21T07:46:48.345Z,3.80
2022-11-21T07:51:50.438Z,6.63
2022-11-21T07:56:52.156Z,5.60
2022-11-21T08:01:53.896Z,5.53
2022-11-21T08:06:55.835Z,5.40
2022-11-21T08:11:57.359Z,7.63
2022-11-21T08:16:59.297Z,6.10
2022-11-21T08:22:00.881Z,8.67
2022-11-21T08:27:02.555Z,3.57
2022-11-21T08:32:06.244Z,4.17
2022-11-21T08:37:08.111Z,5.67
2022-11-21T08:42:10.463Z,5.63
2022-11-21T08:47:12.110Z,2.80
2022-11-21T08:52:14.426Z,2.67
2022-11-21T08:57:15.959Z,4.80
2022-11-21T09:02:17.465Z,2.50
2022-11-21T09:07:19.067Z,2.80
2022-11-21T09:12:20.710Z,4.13
2022-11-21T09:17:40.980Z,3.47
2022-11-21T09:22:42.690Z,6.63
2022-11-21T09:27:44.662Z,2.60
2022-11-21T09:32:46.275Z,3.10
2022-11-21T09:37:47.851Z,3.83
2022-11-21T09:43:27.701Z,3.30
2022-11-21T09:48:46.426Z,1.93
2022-11-21T09:53:54.089Z,1.90
2022-11-21T09:59:07.199Z,1.60
2022-11-21T10:04:08.761Z,1.50
2022-11-21T10:09:23.755Z,1.30
2022-11-21T10:14:42.418Z,1.80
2022-11-21T10:20:01.776Z,2.23
2022-11-21T10:25:14.131Z,1.50
2022-11-21T10:30:20.813Z,1.60
2022-11-21T10:35:28.951Z,1.70
2022-11-21T10:40:44.848Z,1.47
2022-11-21T10:45:46.826Z,1.33
2022-11-21T10:51:14.907Z,1.20
2022-11-21T10:56:21.776Z,1.07
2022-11-21T11:01:34.540Z,1.00
2022-11-21T11:06:38.055Z,2.93
2022-11-21T11:11:39.752Z,1.43
2022-11-21T11:16:46.334Z,1.73
2022-11-21T11:21:49.539Z,1.47
2022-11-21T11:26:57.331Z,1.53
2022-11-21T11:31:58.879Z,1.13
2022-11-21T11:37:31.869Z,1.33
2022-11-21T11:43:31.751Z,1.13
2022-11-21T11:48:56.214Z,1.53
2022-11-21T11:54:03.556Z,1.23
2022-11-21T11:59:07.499Z,1.50
2022-11-21T12:04:20.066Z,1.40
2022-11-21T12:09:28.632Z,1.27
2022-11-21T12:15:00.534Z,1.30
2022-11-21T12:20:03.996Z,1.40
2022-11-21T12:25:11.133Z,1.43
2022-11-21T12:30:24.858Z,1.40
2022-11-21T12:35:54.091Z,2.30
2022-11-21T12:41:36.512Z,1.50
2022-11-21T12:46:56.609Z,1.47
2022-11-21T12:52:20.016Z,1.50
2022-11-21T12:57:31.869Z,1.90
2022-11-21T13:02:39.417Z,1.27
2022-11-21T13:07:41.597Z,2.87
2022-11-21T13:12:53.312Z,1.50
2022-11-21T13:17:59.028Z,1.47
2022-11-21T13:23:06.225Z,1.10
2022-11-21T13:28:13.772Z,1.50
2022-11-21T13:33:37.224Z,1.57
2022-11-21T13:38:51.142Z,1.23
2022-11-21T13:44:30.749Z,1.67
2022-11-21T13:49:47.112Z,2.50
2022-11-21T13:55:16.293Z,3.70
2022-11-21T14:00:42.890Z,2.60
2022-11-21T14:06:33.684Z,1.60
2022-11-21T14:11:40.055Z,2.70
2022-11-21T14:16:47.095Z,2.53
2022-11-21T14:21:50.323Z,3.00
2022-11-21T14:26:53.074Z,2.77
2022-11-21T14:31:55.801Z,1.93
2022-11-21T14:37:03.059Z,3.37
2022-11-21T14:42:05.728Z,1.13
2022-11-21T14:47:23.429Z,3.30
2022-11-21T14:52:29.390Z,3.53
2022-11-21T14:57:34.566Z,1.70
2022-11-21T15:02:36.229Z,1.60
2022-11-21T15:07:42.608Z,5.17
2022-11-21T15:12:47.966Z,1.70
2022-11-21T15:18:24.402Z,2.03
2022-11-21T15:23:25.528Z,2.07
2022-11-21T15:28:27.703Z,3.40
2022-11-21T15:33:29.226Z,6.53
2022-11-21T15:38:40.885Z,2.93
2022-11-21T15:43:49.959Z,3.50
2022-11-21T15:48:52.829Z,3.27
2022-11-21T15:53:54.331Z,4.33
2022-11-21T15:58:55.968Z,4.53
2022-11-21T16:04:00.979Z,4.50
2022-11-21T16:09:03.268Z,6.70
2022-11-21T16:14:06.076Z,7.13
2022-11-21T16:19:08.187Z,4.13
2022-11-21T16:24:09.864Z,2.50
2022-11-21T16:29:11.509Z,2.47
2022-11-21T16:34:13.043Z,5.35
2022-11-21T16:39:18.184Z,6.00
2022-11-21T16:44:20.531Z,4.20
2022-11-21T16:49:23.581Z,2.73
2022-11-21T16:54:25.826Z,2.97
2022-11-21T16:59:27.867Z,6.37
2022-11-21T17:04:29.979Z,2.63
2022-11-21T17:09:32.091Z,2.57
2022-11-21T17:14:34.738Z,2.53
2022-11-21T17:19:36.469Z,2.40
2022-11-21T17:24:38.184Z,3.87
2022-11-21T17:29:39.661Z,3.73
2022-11-21T17:34:41.141Z,3.07
2022-11-21T17:39:42.658Z,2.60
2022-11-21T17:44:44.250Z,2.37
2022-11-21T17:49:45.761Z,4.77
2022-11-21T17:54:47.283Z,3.93
2022-11-21T17:59:49.316Z,2.80
2022-11-21T18:04:50.805Z,5.63
2022-11-21T18:09:52.510Z,2.87
2022-11-21T18:14:54.487Z,6.40
2022-11-21T18:19:56.304Z,3.13
2022-11-21T18:24:57.839Z,3.93
2022-11-21T18:29:59.531Z,4.57
2022-11-21T18:35:01.305Z,5.30
2022-11-21T18:40:03.024Z,3.77
2022-11-21T18:45:05.018Z,4.50
2022-11-21T18:50:07.163Z,3.93
2022-11-21T18:55:08.924Z,5.97
2022-11-21T19:00:11.458Z,5.40
2022-11-21T19:05:17.565Z,4.33
2022-11-21T19:10:41.848Z,6.97
2022-11-21T19:15:43.847Z,2.63
2022-11-21T19:20:45.558Z,5.30
2022-11-21T19:25:47.701Z,2.50
2022-11-21T19:30:49.295Z,4.93
2022-11-21T19:35:51.325Z,5.30
2022-11-21T19:41:11.723Z,5.97
2022-11-21T19:46:14.923Z,6.07
2022-11-21T19:51:17.378Z,5.30
2022-11-21T19:56:20.904Z,4.87
2022-11-21T20:01:24.812Z,5.23
2022-11-21T20:06:37.598Z,5.63
2022-11-21T20:11:40.901Z,2.50
2022-11-21T20:16:44.829Z,6.43
2022-11-21T20:21:46.947Z,3.97
2022-11-21T20:26:48.800Z,4.53
2022-11-21T20:31:50.584Z,7.83
2022-11-21T20:36:52.361Z,3.10
2022-11-21T20:41:53.971Z,2.37
2022-11-21T20:46:55.613Z,2.80
2022-11-21T20:57:19.189Z,3.80
2022-11-21T21:02:20.804Z,5.37
2022-11-21T21:07:22.431Z,2.67
2022-11-21T21:12:24.451Z,3.83
2022-11-21T21:17:26.112Z,4.40
2022-11-21T21:22:28.860Z,3.43
2022-11-21T21:27:30.467Z,4.43
2022-11-21T21:32:32.167Z,5.07
2022-11-21T21:37:33.740Z,6.93
2022-11-21T21:42:35.234Z,4.43
2022-11-21T21:47:37.437Z,3.83
2022-11-21T21:52:39.071Z,2.70
2022-11-21T21:57:46.049Z,3.40
2022-11-21T22:02:50.043Z,2.33
2022-11-21T22:07:51.613Z,3.33
2022-11-21T22:12:53.356Z,3.97
2022-11-21T22:17:54.960Z,3.67
2022-11-21T22:23:00.425Z,3.07
2022-11-21T22:28:02.340Z,1.77
2022-11-21T22:33:04.164Z,4.70
2022-11-21T22:38:05.745Z,3.80
2022-11-21T22:43:07.303Z,4.13
2022-11-21T22:48:08.838Z,3.93
2022-11-21T22:53:10.406Z,4.10
2022-11-21T22:58:12.033Z,2.90
2022-11-21T23:03:13.707Z,2.23
2022-11-21T23:08:15.469Z,3.93
2022-11-21T23:13:16.983Z,2.93
2022-11-21T23:18:18.622Z,3.50
2022-11-21T23:23:21.040Z,2.93
2022-11-21T23:28:22.667Z,2.03
2022-11-21T23:33:24.534Z,2.90
2022-11-21T23:38:26.764Z,4.23
2022-11-21T23:43:28.512Z,3.60
2022-11-21T23:48:30.240Z,2.03
2022-11-21T23:53:31.924Z,2.30
2022-11-21T23:58:33.791Z,1.40
